Albuquerque, NM

11:37 PM MDT on August 27, 2015 (GMT -0600)
Sante Fe Village - Rockcress | | Change Station
CLOSE
Current Station
Personal Weather Station
Location: Albuquerque, NM
Elevation: 5203 ft
Nearby Weather Stations

Elev 5203 ft 35.14 °N, 106.72 °W | Updated 27 seconds ago

Partly Cloudy
Partly Cloudy
70.3 °F
Feels Like 76 °F
N
3.6
Wind Variable Wind from West
Gusts 4.9 mph

Today
High -- | Low -- °F
--% Chance of Precip.
Yesterday
High -- | Low -- °F
Precip. -- in
6:35 AM 7:40 PM
Waxing Gibbous, 96% visible
Pressure 29.97 in
Visibility 10.0 miles
Clouds Mostly Cloudy 25000 ft
Heat Index 76 °F
Dew Point 55 °F
Humidity 59%
Rainfall 0.00 in
Snow Depth Not available.
UV 0.0 out of 12
Pollen 5.80 out of 12
Air Quality Not available.
Flu Activity Not available.
METAR KABQ 280452Z 15006KT 10SM BKN250 22/12 A3021 RMK AO2 SLP148 T02220122
Pressure 29.97 in
Visibility 10.0 miles
Clouds Mostly Cloudy 25000 ft
Heat Index 76 °F
Dew Point 55 °F
Humidity 59%
Rainfall 0.00 in
Snow Depth Not available.
UV 0.0 out of 12
Pollen 5.80 out of 12
Air Quality Not available.
Flu Activity Not available.
METAR KABQ 280452Z 15006KT 10SM BKN250 22/12 A3021 RMK AO2 SLP148 T02220122

10-Day Weather Forecast

×

Almanac

Astronomy

Aug. 27, 2015 Rise Set
Actual Time
Civil Twilight
Nautical Twilight
Astronomical Twilight
Moon
Length of Visible Light
Length of Day
Tomorrow will be .
, % of the Moon is Illuminated

Today's Extremes

State Highs State Lows

Community

WunderPhotos

Upload Photos

1,850,341 photos uploaded!

WunderBlogs® & News

Nearby

Air Quality

  Air Quality AQ Index Pollutant
Not available.

Snow Depth

Station Depth Elevation

Earthquake Activity

City Distance Mag. Time & Date
Minimum magnitude displayed is 2.5.

Coastal Water Temperatures

Place Temperature

Stations

Nearby Weather Stations

Station Location Temp. Windchill Dew Point Humidity Wind Precip. Elev Updated Type